createdAt,value
2022-08-18T00:00:24.015Z,100808.47
2022-08-18T00:01:25.930Z,100808.47
2022-08-18T00:02:31.770Z,100805.94
2022-08-18T00:03:57.394Z,100817.59
2022-08-18T00:04:58.341Z,100813.03
2022-08-18T00:06:01.437Z,100809.47
2022-08-18T00:07:04.104Z,100810.50
2022-08-18T00:08:06.642Z,100818.59
2022-08-18T00:09:10.844Z,100819.28
2022-08-18T00:10:15.598Z,100818.59
2022-08-18T00:11:22.233Z,100820.28
2022-08-18T00:12:26.377Z,100813.19
2022-08-18T00:13:29.089Z,100821.31
2022-08-18T00:14:31.089Z,100816.97
2022-08-18T00:15:48.736Z,100819.66
2022-08-18T00:16:53.350Z,100819.84
2022-08-18T00:17:55.910Z,100814.00
2022-08-18T00:18:57.698Z,100818.53
2022-08-18T00:20:00.585Z,100819.59
2022-08-18T00:21:03.537Z,100818.09
2022-08-18T00:22:06.680Z,100827.25
2022-08-18T00:23:08.801Z,100825.56
2022-08-18T00:24:11.387Z,100823.91
2022-08-18T00:25:16.481Z,100820.38
2022-08-18T00:26:19.020Z,100827.44
2022-08-18T00:27:23.221Z,100832.84
2022-08-18T00:28:26.337Z,100826.59
2022-08-18T00:29:28.180Z,100833.69
2022-08-18T00:30:30.696Z,100834.50
2022-08-18T00:31:33.093Z,100840.75
2022-08-18T00:32:39.417Z,100828.28
2022-08-18T00:33:40.972Z,100836.38
2022-08-18T00:34:44.049Z,100831.81
2022-08-18T00:35:45.672Z,100828.28
2022-08-18T00:36:50.150Z,100831.19
2022-08-18T00:37:52.080Z,100829.50
2022-08-18T00:38:54.930Z,100830.53
2022-08-18T00:39:57.518Z,100825.34
2022-08-18T00:40:59.201Z,100837.34
2022-08-18T00:42:13.685Z,100834.00
2022-08-18T00:43:34.411Z,100838.56
2022-08-18T00:45:28.114Z,100830.84
2022-08-18T00:46:33.247Z,100824.81
2022-08-18T00:47:42.468Z,100826.69
2022-08-18T00:48:48.538Z,100825.19
2022-08-18T00:49:54.165Z,100825.19
2022-08-18T00:50:57.699Z,100821.66
2022-08-18T00:52:02.697Z,100828.28
2022-08-18T00:53:09.299Z,100818.50
2022-08-18T00:54:16.616Z,100829.31
2022-08-18T00:55:19.406Z,100825.13
2022-08-18T00:56:26.371Z,100828.84
2022-08-18T00:57:29.280Z,100827.19
2022-08-18T00:58:37.174Z,100823.00
2022-08-18T00:59:45.373Z,100823.00
2022-08-18T01:00:50.553Z,100821.31
2022-08-18T01:01:55.599Z,100818.81
2022-08-18T01:03:03.896Z,100819.00
2022-08-18T01:04:09.712Z,100814.66
2022-08-18T01:05:18.897Z,100814.00
2022-08-18T01:06:26.689Z,100814.38
2022-08-18T01:07:36.587Z,100810.00
2022-08-18T01:08:38.641Z,100813.75
2022-08-18T01:09:43.545Z,100823.25
2022-08-18T01:10:45.578Z,100820.94
2022-08-18T01:11:48.548Z,100824.81
2022-08-18T01:12:53.273Z,100820.63
2022-08-18T01:14:00.142Z,100820.81
2022-08-18T01:15:02.095Z,100819.34
2022-08-18T01:16:25.737Z,100823.06
2022-08-18T01:17:46.411Z,100821.38
2022-08-18T01:19:06.712Z,100819.72
2022-08-18T01:20:31.238Z,100821.59
2022-08-18T01:21:53.216Z,100818.88
2022-08-18T01:23:04.594Z,100818.88
2022-08-18T01:24:11.409Z,100823.44
2022-08-18T01:25:32.834Z,100826.16
2022-08-18T01:26:37.524Z,100818.03
2022-08-18T01:27:48.032Z,100822.44
2022-08-18T01:28:50.579Z,100824.06
2022-08-18T01:29:53.353Z,100823.06
2022-08-18T01:30:58.257Z,100821.38
2022-08-18T01:32:00.866Z,100821.00
2022-08-18T01:33:02.540Z,100807.50
2022-08-18T01:34:06.232Z,100820.44
2022-08-18T01:35:10.440Z,100816.53
2022-08-18T01:36:22.227Z,100827.16
2022-08-18T01:37:25.389Z,100819.91
2022-08-18T01:38:32.171Z,100825.31
2022-08-18T01:41:01.000Z,100821.56
2022-08-18T01:41:22.377Z,100827.63
2022-08-18T01:42:19.361Z,100830.31
2022-08-18T01:43:21.217Z,100835.72
2022-08-18T01:44:23.889Z,100830.97
2022-08-18T01:45:26.411Z,100841.75
2022-08-18T01:46:30.775Z,100837.38
2022-08-18T01:47:48.093Z,100832.19
2022-08-18T01:48:51.586Z,100832.34
2022-08-18T01:49:53.315Z,100836.09
2022-08-18T01:50:56.919Z,100837.97
2022-08-18T01:51:58.545Z,100841.50
2022-08-18T01:53:01.572Z,100836.28
2022-08-18T01:54:05.434Z,100836.28
2022-08-18T01:55:08.808Z,100842.69
2022-08-18T01:56:10.789Z,100844.56
2022-08-18T01:57:16.737Z,100843.53
2022-08-18T01:58:18.369Z,100841.00
2022-08-18T01:59:20.959Z,100844.56
2022-08-18T02:00:22.801Z,100849.94
2022-08-18T02:01:35.311Z,100854.34
2022-08-18T02:02:41.881Z,100853.31
2022-08-18T02:03:49.090Z,100849.78
2022-08-18T02:04:55.145Z,100857.03
2022-08-18T02:06:00.881Z,100852.66
2022-08-18T02:07:06.226Z,100852.66
2022-08-18T02:08:08.263Z,100856.19
2022-08-18T02:09:12.774Z,100858.88
2022-08-18T02:10:16.473Z,100861.59
2022-08-18T02:11:19.441Z,100861.75
2022-08-18T02:12:21.097Z,100861.75
2022-08-18T02:13:24.001Z,100857.38
2022-08-18T02:14:27.580Z,100856.38
2022-08-18T02:15:30.442Z,100860.06
2022-08-18T02:16:33.425Z,100853.84
2022-08-18T02:17:39.002Z,100859.25
2022-08-18T02:18:47.623Z,100854.88
2022-08-18T02:19:51.220Z,100855.06
2022-08-18T02:20:52.904Z,100857.13
2022-08-18T02:21:55.595Z,100852.13
2022-08-18T02:22:58.580Z,100854.34
2022-08-18T02:24:02.441Z,100853.50
2022-08-18T02:25:07.401Z,100852.84
2022-08-18T02:26:14.710Z,100847.44
2022-08-18T02:27:16.780Z,100845.78
2022-08-18T02:28:19.386Z,100841.41
2022-08-18T02:29:21.066Z,100837.03
2022-08-18T02:30:24.019Z,100835.38
2022-08-18T02:31:35.999Z,100833.69
2022-08-18T02:32:38.919Z,100832.22
2022-08-18T02:33:41.149Z,100819.75
2022-08-18T02:34:54.280Z,100820.75
2022-08-18T02:35:56.084Z,100820.31
2022-08-18T02:37:00.882Z,100816.13
2022-08-18T02:38:04.226Z,100816.13
2022-08-18T02:39:09.510Z,100816.34
2022-08-18T02:40:14.872Z,100811.75
2022-08-18T02:41:18.376Z,100822.75
2022-08-18T02:42:20.069Z,100809.63
2022-08-18T02:43:22.712Z,100821.44
2022-08-18T02:44:24.340Z,100817.09
2022-08-18T02:45:27.169Z,100822.03
2022-08-18T02:46:30.243Z,100822.81
2022-08-18T02:47:34.004Z,100822.41
2022-08-18T02:48:35.642Z,100826.28
2022-08-18T02:49:38.231Z,100824.63
2022-08-18T02:50:47.109Z,100828.34
2022-08-18T02:51:52.012Z,100827.50
2022-08-18T02:52:54.509Z,100828.34
2022-08-18T02:53:59.405Z,100817.72
2022-08-18T02:55:02.414Z,100825.81
2022-08-18T02:56:32.722Z,100818.56
2022-08-18T02:57:44.601Z,100816.06
2022-08-18T02:58:48.007Z,100819.63
2022-08-18T02:59:49.737Z,100815.03
2022-08-18T03:00:52.686Z,100813.16
2022-08-18T03:01:56.187Z,100818.41
2022-08-18T03:02:58.999Z,100820.88
2022-08-18T03:04:01.067Z,100818.41
2022-08-18T03:05:03.979Z,100813.84
2022-08-18T03:06:06.305Z,100824.44
2022-08-18T03:07:09.430Z,100821.56
2022-08-18T03:08:11.523Z,100823.22
2022-08-18T03:09:16.175Z,100822.41
2022-08-18T03:10:32.365Z,100822.56
2022-08-18T03:11:38.949Z,100819.25
2022-08-18T03:12:41.950Z,100821.25
2022-08-18T03:13:45.588Z,100809.84
2022-08-18T03:14:47.331Z,100816.91
2022-08-18T03:15:53.412Z,100819.63
2022-08-18T03:16:59.752Z,100815.03
2022-08-18T03:18:02.007Z,100820.25
2022-08-18T03:19:04.872Z,100819.25
2022-08-18T03:20:07.873Z,100824.63
2022-08-18T03:21:14.196Z,100822.75
2022-08-18T03:22:28.145Z,100830.66
2022-08-18T03:23:32.376Z,100824.44
2022-08-18T03:24:34.907Z,100827.97
2022-08-18T03:25:43.913Z,100823.78
2022-08-18T03:26:47.511Z,100819.63
2022-08-18T03:27:50.158Z,100817.94
2022-08-18T03:28:54.529Z,100821.25
2022-08-18T03:29:58.730Z,100816.72
2022-08-18T03:31:00.608Z,100820.88
2022-08-18T03:32:04.394Z,100824.25
2022-08-18T03:33:06.177Z,100821.34
2022-08-18T03:34:09.385Z,100822.03
2022-08-18T03:35:11.104Z,100827.22
2022-08-18T03:36:17.064Z,100823.50
2022-08-18T03:37:18.682Z,100823.50
2022-08-18T03:38:21.585Z,100817.91
2022-08-18T03:39:24.974Z,100817.72
2022-08-18T03:40:26.554Z,100822.09
2022-08-18T03:41:43.944Z,100820.41
2022-08-18T03:42:54.784Z,100821.44
2022-08-18T03:43:58.333Z,100824.13
2022-08-18T03:44:59.989Z,100823.97
2022-08-18T03:46:06.509Z,100820.22
2022-08-18T03:47:10.257Z,100825.59
2022-08-18T03:48:12.843Z,100826.44
2022-08-18T03:49:14.682Z,100824.44
2022-08-18T03:50:18.696Z,100825.44
2022-08-18T03:51:24.701Z,100831.47
2022-08-18T03:52:27.544Z,100827.75
2022-08-18T03:53:29.176Z,100829.44
2022-08-18T03:54:33.341Z,100828.59
2022-08-18T03:55:34.944Z,100827.75
2022-08-18T03:56:39.444Z,100828.59
2022-08-18T03:57:41.562Z,100824.03
2022-08-18T03:58:47.280Z,100827.38
2022-08-18T03:59:49.448Z,100828.00
2022-08-18T04:00:52.043Z,100827.00
2022-08-18T04:01:55.396Z,100827.84
2022-08-18T04:02:59.402Z,100822.44
2022-08-18T04:04:03.466Z,100813.34
2022-08-18T04:05:07.915Z,100823.06
2022-08-18T04:06:16.219Z,100821.88
2022-08-18T04:07:32.625Z,100819.19
2022-08-18T04:08:34.212Z,100820.84
2022-08-18T04:09:38.698Z,100826.25
2022-08-18T04:10:40.561Z,100820.84
2022-08-18T04:11:44.829Z,100823.38
2022-08-18T04:12:46.784Z,100818.81
2022-08-18T04:13:51.056Z,100818.81
2022-08-18T04:14:53.329Z,100823.16
2022-08-18T04:15:55.941Z,100821.50
2022-08-18T04:16:58.158Z,100821.69
2022-08-18T04:18:04.184Z,100823.53
2022-08-18T04:19:07.669Z,100813.78
2022-08-18T04:20:12.814Z,100819.19
2022-08-18T04:21:14.708Z,100819.19
2022-08-18T04:22:18.510Z,100821.88
2022-08-18T04:23:21.220Z,100823.53
2022-08-18T04:24:24.036Z,100817.50
2022-08-18T04:25:32.183Z,100822.91
2022-08-18T04:26:38.079Z,100828.31
2022-08-18T04:27:42.684Z,100824.59
2022-08-18T04:28:45.375Z,100829.97
2022-08-18T04:29:49.419Z,100825.41
2022-08-18T04:30:51.589Z,100827.06
2022-08-18T04:31:54.167Z,100827.06
2022-08-18T04:32:55.785Z,100817.13
2022-08-18T04:34:00.084Z,100827.91
2022-08-18T04:35:02.894Z,100826.25
2022-08-18T04:36:11.336Z,100824.38
2022-08-18T04:37:13.844Z,100821.69
2022-08-18T04:38:16.638Z,100821.88
2022-08-18T04:39:18.445Z,100822.53
2022-08-18T04:40:25.061Z,100823.53
2022-08-18T04:41:27.875Z,100822.53
2022-08-18T04:42:30.569Z,100819.81
2022-08-18T04:43:33.603Z,100825.22
2022-08-18T04:44:37.764Z,100831.25
2022-08-18T04:45:41.185Z,100821.50
2022-08-18T04:46:47.448Z,100832.31
2022-08-18T04:47:50.754Z,100832.31
2022-08-18T04:48:58.345Z,100829.59
2022-08-18T04:50:00.911Z,100827.75
2022-08-18T04:51:06.853Z,100824.00
2022-08-18T04:52:39.636Z,100830.25
2022-08-18T04:53:47.984Z,100831.25
2022-08-18T04:54:50.125Z,100831.47
2022-08-18T04:55:54.197Z,100831.25
2022-08-18T04:56:56.792Z,100838.34
2022-08-18T04:57:58.931Z,100838.97
2022-08-18T04:59:04.526Z,100835.91
2022-08-18T05:00:08.572Z,100829.47
2022-08-18T05:01:17.447Z,100840.94
2022-08-18T05:02:21.494Z,100840.94
2022-08-18T05:03:26.761Z,100850.50
2022-08-18T05:04:30.205Z,100851.34
2022-08-18T05:05:32.807Z,100848.66
2022-08-18T05:06:35.518Z,100851.13
2022-08-18T05:07:44.738Z,100848.44
2022-08-18T05:08:48.225Z,100851.13
2022-08-18T05:09:51.899Z,100856.38
2022-08-18T05:10:54.294Z,100856.38
2022-08-18T05:11:56.951Z,100851.81
2022-08-18T05:12:58.529Z,100846.41
2022-08-18T05:14:02.069Z,100855.34
2022-08-18T05:15:06.593Z,100848.94
2022-08-18T05:16:11.122Z,100849.78
2022-08-18T05:17:17.539Z,100850.63
2022-08-18T05:18:22.704Z,100855.00
2022-08-18T05:19:27.102Z,100853.94
2022-08-18T05:20:29.681Z,100851.06
2022-08-18T05:21:33.737Z,100848.38
2022-08-18T05:22:39.764Z,100858.97
2022-08-18T05:23:43.240Z,100859.81
2022-08-18T05:24:45.116Z,100861.28
2022-08-18T05:25:48.241Z,100861.09
2022-08-18T05:26:56.220Z,100868.19
2022-08-18T05:27:58.078Z,100866.13
2022-08-18T05:29:18.003Z,100867.59
2022-08-18T05:30:22.601Z,100866.59
2022-08-18T05:31:28.482Z,100864.53
2022-08-18T05:32:47.347Z,100869.53
2022-08-18T05:33:55.513Z,100865.81
2022-08-18T05:34:57.451Z,100872.69
2022-08-18T05:36:04.819Z,100865.44
2022-08-18T05:37:24.059Z,100873.53
2022-08-18T05:38:42.289Z,100868.34
2022-08-18T05:39:56.016Z,100870.19
2022-08-18T05:41:14.341Z,100876.63
2022-08-18T05:42:19.853Z,100870.38
2022-08-18T05:43:22.494Z,100873.28
2022-08-18T05:44:31.500Z,100867.88
2022-08-18T05:45:35.319Z,100871.59
2022-08-18T05:46:43.570Z,100871.44
2022-08-18T05:47:47.992Z,100863.31
2022-08-18T05:48:50.587Z,100868.72
2022-08-18T05:49:54.627Z,100874.13
2022-08-18T05:50:57.961Z,100878.47
2022-08-18T05:52:04.335Z,100874.94
2022-08-18T05:53:13.456Z,100877.47
2022-08-18T05:54:37.769Z,100878.28
2022-08-18T05:56:00.755Z,100889.28
2022-08-18T05:57:08.398Z,100892.19
2022-08-18T05:58:15.769Z,100886.13
2022-08-18T05:59:26.083Z,100889.03
2022-08-18T06:00:30.940Z,100885.66
2022-08-18T06:01:38.715Z,100886.50
2022-08-18T06:02:48.829Z,100886.50
2022-08-18T06:03:55.464Z,100886.50
2022-08-18T06:05:01.095Z,100882.16
2022-08-18T06:06:08.944Z,100889.41
2022-08-18T06:07:33.683Z,100891.44
2022-08-18T06:08:40.590Z,100889.78
2022-08-18T06:09:48.435Z,100893.50
2022-08-18T06:10:51.584Z,100901.59
2022-08-18T06:11:59.487Z,100888.94
2022-08-18T06:13:03.678Z,100892.66
2022-08-18T06:14:05.656Z,100899.75
2022-08-18T06:15:14.428Z,100902.25
2022-08-18T06:16:25.241Z,100897.69
2022-08-18T06:17:43.985Z,100900.38
2022-08-18T06:18:54.372Z,100904.09
2022-08-18T06:20:04.308Z,100904.09
2022-08-18T06:21:16.727Z,100903.09
2022-08-18T06:22:31.268Z,100903.91
2022-08-18T06:23:42.622Z,100909.31
2022-08-18T06:24:51.817Z,100908.47
2022-08-18T06:26:05.096Z,100907.63
2022-08-18T06:27:14.910Z,100912.03
2022-08-18T06:28:18.114Z,100906.63
2022-08-18T06:29:34.425Z,100905.78
2022-08-18T06:30:49.383Z,100901.84
2022-08-18T06:32:01.293Z,100907.25
2022-08-18T06:33:18.405Z,100905.22
2022-08-18T06:34:37.284Z,100911.47
2022-08-18T06:35:45.643Z,100907.53
2022-08-18T06:36:55.375Z,100911.94
2022-08-18T06:38:28.029Z,100912.72
2022-08-18T06:39:36.497Z,100915.25
2022-08-18T06:40:38.287Z,100916.09
2022-08-18T06:41:45.359Z,100919.63
2022-08-18T06:42:48.133Z,100929.22
2022-08-18T06:44:01.199Z,100918.59
2022-08-18T06:45:11.363Z,100923.16
2022-08-18T06:46:17.624Z,100919.81
2022-08-18T06:47:32.595Z,100924.38
2022-08-18T06:48:40.487Z,100923.75
2022-08-18T06:49:51.159Z,100920.19
2022-08-18T06:50:55.978Z,100922.91
2022-08-18T06:51:58.625Z,100928.28
2022-08-18T06:53:04.973Z,100925.59
2022-08-18T06:54:09.402Z,100925.59
2022-08-18T06:55:17.432Z,100923.91
2022-08-18T06:56:27.346Z,100928.28
2022-08-18T06:57:32.781Z,100926.44
2022-08-18T06:58:35.462Z,100927.28
2022-08-18T06:59:38.305Z,100924.59
2022-08-18T07:00:46.247Z,100931.47
2022-08-18T07:01:54.797Z,100932.31
2022-08-18T07:03:01.754Z,100934.78
2022-08-18T07:04:03.626Z,100931.91
2022-08-18T07:05:09.790Z,100936.31
2022-08-18T07:06:31.420Z,100931.72
2022-08-18T07:07:39.364Z,100936.09
2022-08-18T07:08:54.271Z,100926.13
2022-08-18T07:09:56.838Z,100929.00
2022-08-18T07:11:12.600Z,100927.38
2022-08-18T07:12:22.525Z,100927.53
2022-08-18T07:13:27.199Z,100923.34
2022-08-18T07:14:29.862Z,100924.38
2022-08-18T07:15:32.163Z,100921.88
2022-08-18T07:16:57.189Z,100929.31
2022-08-18T07:18:06.139Z,100923.91
2022-08-18T07:19:08.643Z,100929.78
2022-08-18T07:20:21.787Z,100931.47
2022-08-18T07:21:33.172Z,100936.47
2022-08-18T07:23:07.880Z,100935.25
2022-08-18T07:24:25.138Z,100932.75
2022-08-18T07:25:32.386Z,100938.34
2022-08-18T07:27:00.020Z,100938.34
2022-08-18T07:28:02.794Z,100937.13
2022-08-18T07:29:13.558Z,100935.06
2022-08-18T07:30:29.422Z,100932.16
2022-08-18T07:31:44.006Z,100924.53
2022-08-18T07:32:49.733Z,100924.53
2022-08-18T07:33:58.484Z,100924.34
2022-08-18T07:35:04.464Z,100933.09
2022-08-18T07:36:10.147Z,100922.50
2022-08-18T07:37:18.543Z,100932.25
2022-08-18T07:38:44.263Z,100931.22
2022-08-18T07:39:52.604Z,100927.50
2022-08-18T07:40:58.864Z,100918.34
2022-08-18T07:42:07.351Z,100914.47
2022-08-18T07:43:17.139Z,100918.19
2022-08-18T07:44:26.024Z,100918.81
2022-08-18T07:45:32.484Z,100915.94
2022-08-18T07:46:45.165Z,100923.84
2022-08-18T07:47:53.989Z,100913.69
2022-08-18T07:48:58.732Z,100917.66
2022-08-18T07:50:31.570Z,100911.44
2022-08-18T07:51:43.424Z,100911.44
2022-08-18T07:52:52.258Z,100914.78
2022-08-18T07:53:59.582Z,100909.84
2022-08-18T07:55:10.724Z,100908.59
2022-08-18T07:56:19.922Z,100906.56
2022-08-18T07:57:35.365Z,100911.13
2022-08-18T07:58:49.992Z,100905.72
2022-08-18T08:00:02.627Z,100904.66
2022-08-18T08:01:17.646Z,100901.59
2022-08-18T08:02:32.137Z,100904.09
2022-08-18T08:03:42.681Z,100908.09
2022-08-18T08:05:04.798Z,100916.69
2022-08-18T08:06:13.241Z,100915.25
2022-08-18T08:07:24.859Z,100912.19
2022-08-18T08:08:33.189Z,100926.97
2022-08-18T08:09:51.199Z,100926.56
2022-08-18T08:11:08.535Z,100924.53
2022-08-18T08:12:22.987Z,100921.44
2022-08-18T08:13:54.543Z,100921.22
2022-08-18T08:15:10.237Z,100927.28
2022-08-18T08:16:20.052Z,100924.38
2022-08-18T08:17:30.562Z,100922.34
2022-08-18T08:18:42.139Z,100922.34
2022-08-18T08:20:01.638Z,100924.00
2022-08-18T08:21:10.801Z,100927.34
2022-08-18T08:22:20.529Z,100929.00
2022-08-18T08:23:30.147Z,100931.53
2022-08-18T08:24:42.044Z,100930.28
2022-08-18T08:25:56.801Z,100935.13
2022-08-18T08:27:06.198Z,100933.72
2022-08-18T08:28:15.616Z,100938.50
2022-08-18T08:29:26.571Z,100935.41
2022-08-18T08:30:32.416Z,100938.56
2022-08-18T08:31:46.323Z,100940.69
2022-08-18T08:33:02.875Z,100940.94
2022-08-18T08:34:13.320Z,100934.94
2022-08-18T08:35:48.402Z,100939.09
2022-08-18T08:36:45.648Z,100944.16
2022-08-18T08:37:54.032Z,100944.16
2022-08-18T08:39:05.674Z,100942.28
2022-08-18T08:40:14.122Z,100944.81
2022-08-18T08:41:25.680Z,100938.75
2022-08-18T08:42:40.914Z,100948.91
2022-08-18T08:43:47.813Z,100948.25
2022-08-18T08:44:59.790Z,100949.31
2022-08-18T08:46:11.109Z,100952.00
2022-08-18T08:47:21.828Z,100949.31
2022-08-18T08:48:31.012Z,100954.72
2022-08-18T08:49:40.157Z,100956.56
2022-08-18T08:50:49.873Z,100960.13
2022-08-18T08:51:57.922Z,100955.56
2022-08-18T08:53:07.182Z,100951.78
2022-08-18T08:54:14.122Z,100947.22
2022-08-18T08:55:25.324Z,100959.38
2022-08-18T08:56:31.061Z,100958.13
2022-08-18T08:57:38.092Z,100950.28
2022-08-18T08:58:44.498Z,100954.03
2022-08-18T08:59:49.696Z,100948.47
2022-08-18T09:00:52.587Z,100954.13
2022-08-18T09:02:08.492Z,100953.31
2022-08-18T09:03:30.593Z,100957.94
2022-08-18T09:04:54.225Z,100953.59
2022-08-18T09:06:22.686Z,100951.56
2022-08-18T09:07:39.626Z,100950.94
2022-08-18T09:09:14.361Z,100949.31
2022-08-18T09:10:41.707Z,100954.94
2022-08-18T09:12:21.562Z,100950.00
2022-08-18T09:13:50.049Z,100942.06
2022-08-18T09:15:34.806Z,100945.81
2022-08-18T09:16:49.162Z,100942.47
2022-08-18T09:18:12.358Z,100939.09
2022-08-18T09:19:36.737Z,100935.13
2022-08-18T09:20:59.065Z,100936.59
2022-08-18T09:22:09.012Z,100939.72
2022-08-18T09:23:14.703Z,100939.06
2022-08-18T09:24:25.718Z,100944.69
2022-08-18T09:25:43.501Z,100942.16
2022-08-18T09:26:50.772Z,100936.34
2022-08-18T09:28:11.861Z,100943.22
2022-08-18T09:29:21.746Z,100935.97
2022-08-18T09:30:45.195Z,100935.81
2022-08-18T09:32:12.488Z,100929.78
2022-08-18T09:33:20.371Z,100936.06
2022-08-18T09:34:47.236Z,100937.34
2022-08-18T09:36:26.039Z,100936.75
2022-08-18T09:37:34.592Z,100935.28
2022-08-18T09:39:01.739Z,100939.06
2022-08-18T09:41:01.180Z,100937.84
2022-08-18T09:41:59.454Z,100940.75
2022-08-18T09:43:12.183Z,100933.88
2022-08-18T09:44:37.050Z,100929.50
2022-08-18T09:45:57.711Z,100932.22
2022-08-18T09:47:01.331Z,100936.63
2022-08-18T09:48:25.462Z,100935.78
2022-08-18T09:49:47.792Z,100934.53
2022-08-18T09:51:23.432Z,100935.59
2022-08-18T09:52:58.864Z,100937.03
2022-08-18T09:54:21.082Z,100931.19
2022-08-18T09:57:24.210Z,100925.41
2022-08-18T09:58:55.611Z,100932.50
2022-08-18T10:00:28.313Z,100930.63
2022-08-18T10:01:41.487Z,100934.56
2022-08-18T10:03:25.920Z,100928.34
2022-08-18T10:04:35.577Z,100932.94
2022-08-18T10:05:38.399Z,100941.69
2022-08-18T10:06:48.423Z,100940.22
2022-08-18T10:07:55.935Z,100953.16
2022-08-18T10:09:26.765Z,100958.56
2022-08-18T10:11:02.256Z,100952.75
2022-08-18T10:12:27.530Z,100947.53
2022-08-18T10:13:48.355Z,100948.78
2022-08-18T10:15:12.172Z,100933.53
2022-08-18T10:16:22.224Z,100936.66
2022-08-18T10:17:39.861Z,100949.63
2022-08-18T10:19:01.293Z,100937.50
2022-08-18T10:20:25.803Z,100934.56
2022-08-18T10:22:55.343Z,100944.19
2022-08-18T10:24:35.063Z,100943.75
2022-08-18T10:25:47.495Z,100933.75
2022-08-18T10:27:27.926Z,100925.78
2022-08-18T10:28:57.283Z,100933.31
2022-08-18T10:29:59.598Z,100932.44
2022-08-18T10:31:09.846Z,100932.44
2022-08-18T10:32:44.153Z,100931.16
2022-08-18T10:34:00.797Z,100927.41
2022-08-18T10:35:05.854Z,100920.47
2022-08-18T10:36:11.033Z,100924.44
2022-08-18T10:37:17.070Z,100931.13
2022-08-18T10:38:32.526Z,100927.56
2022-08-18T10:39:47.456Z,100933.22
2022-08-18T10:41:00.051Z,100933.66
2022-08-18T10:42:19.265Z,100932.41
2022-08-18T10:43:55.005Z,100930.31
2022-08-18T10:45:07.147Z,100927.88
2022-08-18T10:46:25.268Z,100926.78
2022-08-18T10:47:33.432Z,100928.28
2022-08-18T10:48:35.745Z,100933.69
2022-08-18T10:49:49.456Z,100927.03
2022-08-18T10:50:58.582Z,100923.50
2022-08-18T10:52:33.985Z,100929.13
2022-08-18T10:53:45.413Z,100931.03
2022-08-18T10:55:06.265Z,100937.91
2022-08-18T10:56:34.096Z,100920.56
2022-08-18T10:57:51.100Z,100930.81
2022-08-18T10:59:16.434Z,100928.72
2022-08-18T11:00:21.966Z,100930.41
2022-08-18T11:02:02.436Z,100921.22
2022-08-18T11:04:38.717Z,100916.19
2022-08-18T11:05:42.044Z,100914.09
2022-08-18T11:06:50.274Z,100921.81
2022-08-18T11:07:58.520Z,100913.69
2022-08-18T11:09:02.854Z,100913.69
2022-08-18T11:10:57.828Z,100908.47
2022-08-18T11:13:15.914Z,100897.38
2022-08-18T11:14:50.206Z,100894.91
2022-08-18T11:16:04.309Z,100898.44
2022-08-18T11:17:22.829Z,100903.22
2022-08-18T11:18:42.847Z,100901.75
2022-08-18T11:19:52.729Z,100889.84
2022-08-18T11:21:22.332Z,100900.47
2022-08-18T11:22:32.423Z,100906.13
2022-08-18T11:23:37.747Z,100902.34
2022-08-18T11:24:46.393Z,100897.53
2022-08-18T11:25:53.229Z,100894.38
2022-08-18T11:26:59.653Z,100903.16
2022-08-18T11:28:03.454Z,100899.59
2022-08-18T11:29:28.937Z,100900.03
2022-08-18T11:30:36.884Z,100903.16
2022-08-18T11:31:40.453Z,100896.69
2022-08-18T11:32:55.323Z,100896.88
2022-08-18T11:33:57.441Z,100894.38
2022-08-18T11:35:04.018Z,100899.38
2022-08-18T11:36:06.809Z,100892.50
2022-08-18T11:37:20.857Z,100895.56
2022-08-18T11:38:23.453Z,100886.81
2022-08-18T11:39:37.726Z,100889.34
2022-08-18T11:42:15.810Z,100878.22
2022-08-18T11:43:29.915Z,100884.88
2022-08-18T11:44:41.181Z,100886.13
2022-08-18T11:45:54.715Z,100884.44
2022-08-18T11:47:10.447Z,100873.41
2022-08-18T11:48:21.027Z,100875.50
2022-08-18T11:49:33.964Z,100876.53
2022-08-18T11:50:54.402Z,100870.69
2022-08-18T11:53:26.605Z,100875.84
2022-08-18T11:54:39.223Z,100873.53
2022-08-18T11:56:30.809Z,100880.41
2022-08-18T11:57:50.039Z,100887.97
2022-08-18T11:58:56.575Z,100887.56
2022-08-18T12:00:00.448Z,100883.81
2022-08-18T12:01:09.324Z,100885.00
2022-08-18T12:02:16.735Z,100879.13
2022-08-18T12:03:28.483Z,100882.50
2022-08-18T12:04:38.376Z,100880.38
2022-08-18T12:05:54.025Z,100875.78
2022-08-18T12:07:04.603Z,100880.78
2022-08-18T12:08:33.539Z,100872.03
2022-08-18T12:11:26.680Z,100869.94
2022-08-18T12:12:32.543Z,100873.28
2022-08-18T12:13:34.263Z,100870.75
2022-08-18T12:14:58.917Z,100875.13
2022-08-18T12:16:11.309Z,100868.63
2022-08-18T12:17:15.327Z,100874.06
2022-08-18T12:18:28.107Z,100870.53
2022-08-18T12:19:35.894Z,100866.97
2022-08-18T12:20:37.576Z,100873.03
2022-08-18T12:21:41.697Z,100869.25
2022-08-18T12:22:45.398Z,100878.00
2022-08-18T12:23:52.197Z,100870.50
2022-08-18T12:24:54.724Z,100880.09
2022-08-18T12:25:57.410Z,100878.81
2022-08-18T12:27:01.572Z,100881.09
2022-08-18T12:28:15.299Z,100891.97
2022-08-18T12:29:18.695Z,100892.19
2022-08-18T12:30:23.643Z,100887.38
2022-08-18T12:31:28.931Z,100900.72
2022-08-18T12:32:50.626Z,100894.88
2022-08-18T12:34:00.663Z,100894.88
2022-08-18T12:35:09.255Z,100903.03
2022-08-18T12:36:13.549Z,100905.75
2022-08-18T12:37:56.650Z,100901.97
2022-08-18T12:38:44.092Z,100914.50
2022-08-18T12:39:55.325Z,100916.78
2022-08-18T12:40:58.026Z,100922.22
2022-08-18T12:41:59.641Z,100927.66
2022-08-18T12:43:02.363Z,100928.72
2022-08-18T12:44:09.885Z,100928.72
2022-08-18T12:45:15.390Z,100934.59
2022-08-18T12:46:18.512Z,100932.50
2022-08-18T12:47:22.286Z,100936.88
2022-08-18T12:48:28.087Z,100938.53
2022-08-18T12:49:29.713Z,100935.81
2022-08-18T12:50:36.301Z,100935.81
2022-08-18T12:51:40.434Z,100930.38
2022-08-18T12:52:44.099Z,100939.16
2022-08-18T12:53:58.203Z,100936.28
2022-08-18T12:55:03.222Z,100930.22
2022-08-18T12:56:08.795Z,100930.00
2022-08-18T12:57:33.092Z,100917.88
2022-08-18T12:58:36.550Z,100928.78
2022-08-18T12:59:40.013Z,100916.47
2022-08-18T13:00:44.503Z,100912.53
2022-08-18T13:01:47.217Z,100913.59
2022-08-18T13:02:49.870Z,100912.75
2022-08-18T13:04:12.781Z,100907.31
2022-08-18T13:05:16.585Z,100911.50
2022-08-18T13:06:18.278Z,100909.84
2022-08-18T13:07:21.175Z,100904.41
2022-08-18T13:08:30.650Z,100906.69
2022-08-18T13:09:52.555Z,100904.59
2022-08-18T13:10:56.409Z,100896.22
2022-08-18T13:12:00.285Z,100889.09
2022-08-18T13:13:03.177Z,100883.81
2022-08-18T13:14:08.851Z,100875.22
2022-08-18T13:15:12.547Z,100874.31
2022-08-18T13:16:30.306Z,100886.44
2022-08-18T13:17:34.473Z,100874.28
2022-08-18T13:18:36.880Z,100870.31
2022-08-18T13:19:40.900Z,100879.06
2022-08-18T13:20:45.075Z,100874.66
2022-08-18T13:21:47.572Z,100874.06